sensor_id;sensor_type;location;lat;lon;timestamp;temperature;humidity
1680;DHT22;838;51.794;12.258;2022-10-16T00:01:15;16.60;63.30
1680;DHT22;838;51.794;12.258;2022-10-16T00:03:42;16.60;62.40
1680;DHT22;838;51.794;12.258;2022-10-16T00:06:09;16.60;62.70
1680;DHT22;838;51.794;12.258;2022-10-16T00:08:35;16.50;64.00
1680;DHT22;838;51.794;12.258;2022-10-16T00:11:07;16.50;64.50
1680;DHT22;838;51.794;12.258;2022-10-16T00:13:34;16.50;65.70
1680;DHT22;838;51.794;12.258;2022-10-16T00:16:01;16.70;65.30
1680;DHT22;838;51.794;12.258;2022-10-16T00:18:28;16.70;64.20
1680;DHT22;838;51.794;12.258;2022-10-16T00:20:54;16.80;63.00
1680;DHT22;838;51.794;12.258;2022-10-16T00:23:21;16.80;64.10
1680;DHT22;838;51.794;12.258;2022-10-16T00:26:01;16.90;62.90
1680;DHT22;838;51.794;12.258;2022-10-16T00:28:27;17.00;60.70
1680;DHT22;838;51.794;12.258;2022-10-16T00:30:54;17.10;60.60
1680;DHT22;838;51.794;12.258;2022-10-16T00:33:20;17.10;59.80
1680;DHT22;838;51.794;12.258;2022-10-16T00:35:46;17.30;58.70
1680;DHT22;838;51.794;12.258;2022-10-16T00:38:12;17.30;58.30
1680;DHT22;838;51.794;12.258;2022-10-16T00:40:38;17.20;58.80
1680;DHT22;838;51.794;12.258;2022-10-16T00:43:13;17.20;59.20
1680;DHT22;838;51.794;12.258;2022-10-16T00:45:40;17.20;59.60
1680;DHT22;838;51.794;12.258;2022-10-16T00:48:11;17.20;59.40
1680;DHT22;838;51.794;12.258;2022-10-16T00:50:39;17.40;56.80
1680;DHT22;838;51.794;12.258;2022-10-16T00:53:08;17.70;54.10
1680;DHT22;838;51.794;12.258;2022-10-16T00:55:34;17.80;53.00
1680;DHT22;838;51.794;12.258;2022-10-16T00:58:00;17.90;50.50
1680;DHT22;838;51.794;12.258;2022-10-16T01:00:26;17.80;52.10
1680;DHT22;838;51.794;12.258;2022-10-16T01:02:54;17.60;54.20
1680;DHT22;838;51.794;12.258;2022-10-16T01:05:22;17.50;54.80
1680;DHT22;838;51.794;12.258;2022-10-16T01:10:44;17.70;54.60
1680;DHT22;838;51.794;12.258;2022-10-16T01:13:37;17.80;52.40
1680;DHT22;838;51.794;12.258;2022-10-16T01:19:00;18.10;47.80
1680;DHT22;838;51.794;12.258;2022-10-16T01:21:33;18.20;46.50
1680;DHT22;838;51.794;12.258;2022-10-16T01:29:52;18.20;46.00
1680;DHT22;838;51.794;12.258;2022-10-16T01:35:02;18.40;43.20
1680;DHT22;838;51.794;12.258;2022-10-16T01:40:11;18.60;39.90
1680;DHT22;838;51.794;12.258;2022-10-16T01:42:44;18.70;38.20
1680;DHT22;838;51.794;12.258;2022-10-16T01:45:13;18.80;37.20
1680;DHT22;838;51.794;12.258;2022-10-16T01:47:41;18.80;37.40
1680;DHT22;838;51.794;12.258;2022-10-16T01:50:09;18.80;36.10
1680;DHT22;838;51.794;12.258;2022-10-16T01:52:39;18.80;35.70
1680;DHT22;838;51.794;12.258;2022-10-16T01:55:07;18.70;35.60
1680;DHT22;838;51.794;12.258;2022-10-16T01:57:36;18.50;36.80
1680;DHT22;838;51.794;12.258;2022-10-16T02:00:07;18.50;37.20
1680;DHT22;838;51.794;12.258;2022-10-16T02:02:34;18.10;39.20
1680;DHT22;838;51.794;12.258;2022-10-16T02:05:49;17.80;42.70
1680;DHT22;838;51.794;12.258;2022-10-16T02:08:07;17.50;44.20
1680;DHT22;838;51.794;12.258;2022-10-16T02:10:33;17.30;45.80
1680;DHT22;838;51.794;12.258;2022-10-16T02:13:10;16.90;47.40
1680;DHT22;838;51.794;12.258;2022-10-16T02:15:37;16.50;52.60
1680;DHT22;838;51.794;12.258;2022-10-16T02:18:05;16.30;52.20
1680;DHT22;838;51.794;12.258;2022-10-16T02:20:39;16.30;51.30
1680;DHT22;838;51.794;12.258;2022-10-16T02:23:09;16.20;52.60
1680;DHT22;838;51.794;12.258;2022-10-16T02:25:40;16.10;56.50
1680;DHT22;838;51.794;12.258;2022-10-16T02:28:22;16.00;56.20
1680;DHT22;838;51.794;12.258;2022-10-16T02:30:58;16.20;55.00
1680;DHT22;838;51.794;12.258;2022-10-16T02:33:26;16.40;54.30
1680;DHT22;838;51.794;12.258;2022-10-16T02:35:54;16.60;52.10
1680;DHT22;838;51.794;12.258;2022-10-16T02:38:21;16.70;50.20
1680;DHT22;838;51.794;12.258;2022-10-16T02:40:48;16.60;51.40
1680;DHT22;838;51.794;12.258;2022-10-16T02:43:14;16.50;52.50
1680;DHT22;838;51.794;12.258;2022-10-16T02:45:41;16.20;54.50
1680;DHT22;838;51.794;12.258;2022-10-16T02:48:09;15.90;59.00
1680;DHT22;838;51.794;12.258;2022-10-16T02:50:35;15.90;60.50
1680;DHT22;838;51.794;12.258;2022-10-16T02:53:01;15.80;61.40
1680;DHT22;838;51.794;12.258;2022-10-16T02:55:28;15.60;62.60
1680;DHT22;838;51.794;12.258;2022-10-16T02:57:55;15.40;66.20
1680;DHT22;838;51.794;12.258;2022-10-16T03:00:21;15.30;69.10
1680;DHT22;838;51.794;12.258;2022-10-16T03:02:46;15.50;70.30
1680;DHT22;838;51.794;12.258;2022-10-16T03:05:13;15.40;71.30
1680;DHT22;838;51.794;12.258;2022-10-16T03:07:39;15.50;69.70
1680;DHT22;838;51.794;12.258;2022-10-16T03:10:05;15.60;69.50
1680;DHT22;838;51.794;12.258;2022-10-16T03:12:31;15.60;69.70
1680;DHT22;838;51.794;12.258;2022-10-16T03:14:57;15.50;70.80
1680;DHT22;838;51.794;12.258;2022-10-16T03:17:24;15.70;72.70
1680;DHT22;838;51.794;12.258;2022-10-16T03:19:50;15.70;71.70
1680;DHT22;838;51.794;12.258;2022-10-16T03:22:15;15.80;71.70
1680;DHT22;838;51.794;12.258;2022-10-16T03:24:41;15.70;70.70
1680;DHT22;838;51.794;12.258;2022-10-16T03:27:07;15.60;72.50
1680;DHT22;838;51.794;12.258;2022-10-16T03:29:33;15.60;72.60
1680;DHT22;838;51.794;12.258;2022-10-16T03:31:59;15.70;73.70
1680;DHT22;838;51.794;12.258;2022-10-16T03:34:25;16.00;70.40
1680;DHT22;838;51.794;12.258;2022-10-16T03:36:51;16.10;66.00
1680;DHT22;838;51.794;12.258;2022-10-16T03:39:17;16.10;63.40
1680;DHT22;838;51.794;12.258;2022-10-16T03:41:43;15.80;66.20
1680;DHT22;838;51.794;12.258;2022-10-16T03:44:08;15.70;67.70
1680;DHT22;838;51.794;12.258;2022-10-16T03:46:34;15.60;68.70
1680;DHT22;838;51.794;12.258;2022-10-16T03:49:00;15.40;69.70
1680;DHT22;838;51.794;12.258;2022-10-16T03:51:25;15.20;72.40
1680;DHT22;838;51.794;12.258;2022-10-16T03:53:51;15.10;74.70
1680;DHT22;838;51.794;12.258;2022-10-16T03:56:17;15.00;75.40
1680;DHT22;838;51.794;12.258;2022-10-16T03:58:42;14.80;77.80
1680;DHT22;838;51.794;12.258;2022-10-16T04:01:08;14.60;81.70
1680;DHT22;838;51.794;12.258;2022-10-16T04:03:34;14.60;83.80
1680;DHT22;838;51.794;12.258;2022-10-16T04:05:59;14.80;83.70
1680;DHT22;838;51.794;12.258;2022-10-16T04:08:25;15.00;83.10
1680;DHT22;838;51.794;12.258;2022-10-16T04:10:51;15.40;77.10
1680;DHT22;838;51.794;12.258;2022-10-16T04:13:17;15.80;70.70
1680;DHT22;838;51.794;12.258;2022-10-16T04:15:44;15.70;67.60
1680;DHT22;838;51.794;12.258;2022-10-16T04:18:10;15.60;65.50
1680;DHT22;838;51.794;12.258;2022-10-16T04:20:36;15.40;68.10
1680;DHT22;838;51.794;12.258;2022-10-16T04:23:01;15.20;71.60
1680;DHT22;838;51.794;12.258;2022-10-16T04:25:27;15.20;73.00
1680;DHT22;838;51.794;12.258;2022-10-16T04:27:54;15.10;75.20
1680;DHT22;838;51.794;12.258;2022-10-16T04:30:21;15.30;74.40
1680;DHT22;838;51.794;12.258;2022-10-16T04:32:50;15.40;74.80
1680;DHT22;838;51.794;12.258;2022-10-16T04:35:17;15.40;72.00
1680;DHT22;838;51.794;12.258;2022-10-16T04:37:43;15.40;74.50
1680;DHT22;838;51.794;12.258;2022-10-16T04:40:09;15.30;76.30
1680;DHT22;838;51.794;12.258;2022-10-16T04:42:35;15.10;76.50
1680;DHT22;838;51.794;12.258;2022-10-16T04:45:01;15.10;77.90
1680;DHT22;838;51.794;12.258;2022-10-16T04:47:26;14.90;79.60
1680;DHT22;838;51.794;12.258;2022-10-16T04:49:52;14.80;81.40
1680;DHT22;838;51.794;12.258;2022-10-16T04:52:18;14.60;83.90
1680;DHT22;838;51.794;12.258;2022-10-16T04:54:47;14.60;86.80
1680;DHT22;838;51.794;12.258;2022-10-16T04:57:15;14.60;88.70
1680;DHT22;838;51.794;12.258;2022-10-16T04:59:41;14.60;90.00
1680;DHT22;838;51.794;12.258;2022-10-16T05:02:06;14.80;90.50
1680;DHT22;838;51.794;12.258;2022-10-16T05:04:32;15.00;89.10
1680;DHT22;838;51.794;12.258;2022-10-16T05:07:00;15.10;88.20
1680;DHT22;838;51.794;12.258;2022-10-16T05:09:26;15.10;86.30
1680;DHT22;838;51.794;12.258;2022-10-16T05:11:52;15.20;85.70
1680;DHT22;838;51.794;12.258;2022-10-16T05:14:18;15.30;83.80
1680;DHT22;838;51.794;12.258;2022-10-16T05:16:44;15.40;83.00
1680;DHT22;838;51.794;12.258;2022-10-16T05:19:10;15.50;81.60
1680;DHT22;838;51.794;12.258;2022-10-16T05:21:35;15.50;81.60
1680;DHT22;838;51.794;12.258;2022-10-16T05:24:01;15.60;78.80
1680;DHT22;838;51.794;12.258;2022-10-16T05:26:27;15.60;79.40
1680;DHT22;838;51.794;12.258;2022-10-16T05:28:52;15.80;76.90
1680;DHT22;838;51.794;12.258;2022-10-16T05:31:18;15.80;74.10
1680;DHT22;838;51.794;12.258;2022-10-16T05:33:44;15.80;73.80
1680;DHT22;838;51.794;12.258;2022-10-16T05:36:10;15.80;73.20
1680;DHT22;838;51.794;12.258;2022-10-16T05:38:36;15.50;75.70
1680;DHT22;838;51.794;12.258;2022-10-16T05:41:03;15.40;78.30
1680;DHT22;838;51.794;12.258;2022-10-16T05:43:30;15.20;80.30
1680;DHT22;838;51.794;12.258;2022-10-16T05:46:02;15.00;83.70
1680;DHT22;838;51.794;12.258;2022-10-16T05:48:28;14.80;85.40
1680;DHT22;838;51.794;12.258;2022-10-16T05:51:03;14.80;87.50
1680;DHT22;838;51.794;12.258;2022-10-16T05:53:31;14.90;88.30
1680;DHT22;838;51.794;12.258;2022-10-16T05:55:57;15.00;88.00
1680;DHT22;838;51.794;12.258;2022-10-16T05:58:24;15.20;86.00
1680;DHT22;838;51.794;12.258;2022-10-16T06:01:11;15.30;83.60
1680;DHT22;838;51.794;12.258;2022-10-16T06:03:37;15.40;83.10
1680;DHT22;838;51.794;12.258;2022-10-16T06:06:13;15.40;81.70
1680;DHT22;838;51.794;12.258;2022-10-16T06:08:43;15.50;80.60
1680;DHT22;838;51.794;12.258;2022-10-16T06:11:14;15.70;79.80
1680;DHT22;838;51.794;12.258;2022-10-16T06:13:41;15.60;79.10
1680;DHT22;838;51.794;12.258;2022-10-16T06:16:08;15.60;80.00
1680;DHT22;838;51.794;12.258;2022-10-16T06:18:34;15.70;79.50
1680;DHT22;838;51.794;12.258;2022-10-16T06:21:10;15.90;76.90
1680;DHT22;838;51.794;12.258;2022-10-16T06:23:36;15.90;75.90
1680;DHT22;838;51.794;12.258;2022-10-16T06:26:13;15.90;75.50
1680;DHT22;838;51.794;12.258;2022-10-16T06:28:39;15.80;75.10
1680;DHT22;838;51.794;12.258;2022-10-16T06:31:06;15.70;75.70
1680;DHT22;838;51.794;12.258;2022-10-16T06:33:32;15.70;77.10
1680;DHT22;838;51.794;12.258;2022-10-16T06:36:06;15.70;77.80
1680;DHT22;838;51.794;12.258;2022-10-16T06:38:33;15.70;78.10
1680;DHT22;838;51.794;12.258;2022-10-16T06:40:59;15.70;79.10
1680;DHT22;838;51.794;12.258;2022-10-16T06:43:25;15.80;79.80
1680;DHT22;838;51.794;12.258;2022-10-16T06:45:55;16.00;78.00
1680;DHT22;838;51.794;12.258;2022-10-16T06:48:22;16.10;75.60
1680;DHT22;838;51.794;12.258;2022-10-16T06:51:11;16.20;74.50
1680;DHT22;838;51.794;12.258;2022-10-16T06:53:41;16.30;75.20
1680;DHT22;838;51.794;12.258;2022-10-16T06:56:12;16.50;72.50
1680;DHT22;838;51.794;12.258;2022-10-16T06:58:38;16.50;69.40
1680;DHT22;838;51.794;12.258;2022-10-16T07:01:05;16.90;66.30
1680;DHT22;838;51.794;12.258;2022-10-16T07:06:02;17.20;64.00
1680;DHT22;838;51.794;12.258;2022-10-16T07:08:31;17.10;62.20
1680;DHT22;838;51.794;12.258;2022-10-16T07:11:11;17.10;63.40
1680;DHT22;838;51.794;12.258;2022-10-16T07:13:37;17.00;63.00
1680;DHT22;838;51.794;12.258;2022-10-16T07:16:18;17.00;62.70
1680;DHT22;838;51.794;12.258;2022-10-16T07:18:45;17.10;62.90
1680;DHT22;838;51.794;12.258;2022-10-16T07:21:17;17.30;61.40
1680;DHT22;838;51.794;12.258;2022-10-16T07:23:43;17.30;59.60
1680;DHT22;838;51.794;12.258;2022-10-16T07:26:09;17.40;59.20
1680;DHT22;838;51.794;12.258;2022-10-16T07:28:35;17.50;57.80
1680;DHT22;838;51.794;12.258;2022-10-16T07:31:05;17.50;58.80
1680;DHT22;838;51.794;12.258;2022-10-16T07:33:32;17.50;58.10
1680;DHT22;838;51.794;12.258;2022-10-16T07:35:58;17.60;57.40
1680;DHT22;838;51.794;12.258;2022-10-16T07:38:24;17.60;57.60
1680;DHT22;838;51.794;12.258;2022-10-16T07:40:56;17.60;57.20
1680;DHT22;838;51.794;12.258;2022-10-16T07:43:23;17.50;59.80
1680;DHT22;838;51.794;12.258;2022-10-16T07:45:49;17.60;58.50
1680;DHT22;838;51.794;12.258;2022-10-16T07:48:16;17.60;58.00
1680;DHT22;838;51.794;12.258;2022-10-16T07:50:43;17.70;58.60
1680;DHT22;838;51.794;12.258;2022-10-16T07:53:09;17.70;56.60
1680;DHT22;838;51.794;12.258;2022-10-16T07:55:35;17.80;56.30
1680;DHT22;838;51.794;12.258;2022-10-16T07:58:01;18.00;58.00
1680;DHT22;838;51.794;12.258;2022-10-16T08:00:26;18.20;53.40
1680;DHT22;838;51.794;12.258;2022-10-16T08:02:52;18.20;54.30
1680;DHT22;838;51.794;12.258;2022-10-16T08:05:18;18.30;51.70
1680;DHT22;838;51.794;12.258;2022-10-16T08:07:49;18.50;51.70
1680;DHT22;838;51.794;12.258;2022-10-16T08:10:17;19.00;47.60
1680;DHT22;838;51.794;12.258;2022-10-16T08:12:43;19.30;44.40
1680;DHT22;838;51.794;12.258;2022-10-16T08:15:09;19.40;42.00
1680;DHT22;838;51.794;12.258;2022-10-16T08:17:36;19.50;41.30
1680;DHT22;838;51.794;12.258;2022-10-16T08:20:02;19.60;39.60
1680;DHT22;838;51.794;12.258;2022-10-16T08:22:28;19.90;38.50
1680;DHT22;838;51.794;12.258;2022-10-16T08:24:54;20.00;36.40
1680;DHT22;838;51.794;12.258;2022-10-16T08:27:19;20.30;33.40
1680;DHT22;838;51.794;12.258;2022-10-16T08:29:48;20.40;32.20
1680;DHT22;838;51.794;12.258;2022-10-16T08:32:13;20.40;31.20
1680;DHT22;838;51.794;12.258;2022-10-16T08:34:39;20.60;31.00
1680;DHT22;838;51.794;12.258;2022-10-16T08:39:39;20.40;30.40
1680;DHT22;838;51.794;12.258;2022-10-16T08:47:33;20.20;32.20
1680;DHT22;838;51.794;12.258;2022-10-16T08:50:08;20.30;32.10
1680;DHT22;838;51.794;12.258;2022-10-16T08:52:40;20.30;30.40
1680;DHT22;838;51.794;12.258;2022-10-16T08:55:08;20.50;29.20
1680;DHT22;838;51.794;12.258;2022-10-16T08:57:42;20.60;29.20
1680;DHT22;838;51.794;12.258;2022-10-16T09:00:14;20.70;28.50
1680;DHT22;838;51.794;12.258;2022-10-16T09:02:59;20.90;27.40
1680;DHT22;838;51.794;12.258;2022-10-16T09:11:14;21.20;25.30
1680;DHT22;838;51.794;12.258;2022-10-16T09:16:37;21.20;24.20
1680;DHT22;838;51.794;12.258;2022-10-16T09:19:09;21.00;25.00
1680;DHT22;838;51.794;12.258;2022-10-16T09:21:45;20.70;27.10
1680;DHT22;838;51.794;12.258;2022-10-16T09:24:18;20.60;27.90
1680;DHT22;838;51.794;12.258;2022-10-16T09:26:44;20.60;27.70
1680;DHT22;838;51.794;12.258;2022-10-16T09:29:14;20.80;27.70
1680;DHT22;838;51.794;12.258;2022-10-16T09:31:41;20.70;26.80
1680;DHT22;838;51.794;12.258;2022-10-16T09:34:36;20.90;27.00
1680;DHT22;838;51.794;12.258;2022-10-16T09:37:05;21.20;25.20
1680;DHT22;838;51.794;12.258;2022-10-16T09:39:55;21.40;23.10
1680;DHT22;838;51.794;12.258;2022-10-16T09:42:24;21.50;23.30
1680;DHT22;838;51.794;12.258;2022-10-16T09:44:52;21.50;21.60
1680;DHT22;838;51.794;12.258;2022-10-16T09:47:24;21.40;23.20
1680;DHT22;838;51.794;12.258;2022-10-16T09:49:57;21.40;21.80
1680;DHT22;838;51.794;12.258;2022-10-16T09:52:26;21.20;23.90
1680;DHT22;838;51.794;12.258;2022-10-16T09:54:54;21.10;23.30
1680;DHT22;838;51.794;12.258;2022-10-16T09:57:21;21.30;23.70
1680;DHT22;838;51.794;12.258;2022-10-16T10:00:10;21.60;21.80
1680;DHT22;838;51.794;12.258;2022-10-16T10:02:38;21.40;21.40
1680;DHT22;838;51.794;12.258;2022-10-16T10:05:05;21.50;20.80
1680;DHT22;838;51.794;12.258;2022-10-16T10:07:43;21.50;20.40
1680;DHT22;838;51.794;12.258;2022-10-16T10:10:23;21.70;20.80
1680;DHT22;838;51.794;12.258;2022-10-16T10:12:49;21.80;17.60
1680;DHT22;838;51.794;12.258;2022-10-16T10:15:15;21.60;15.70
1680;DHT22;838;51.794;12.258;2022-10-16T10:18:15;21.70;16.10
1680;DHT22;838;51.794;12.258;2022-10-16T10:20:42;21.70;15.30
1680;DHT22;838;51.794;12.258;2022-10-16T10:23:34;21.70;13.80
1680;DHT22;838;51.794;12.258;2022-10-16T10:26:07;21.70;16.00
1680;DHT22;838;51.794;12.258;2022-10-16T10:29:19;21.70;15.10
1680;DHT22;838;51.794;12.258;2022-10-16T10:43:54;21.50;14.50
1680;DHT22;838;51.794;12.258;2022-10-16T10:49:12;21.20;16.20
1680;DHT22;838;51.794;12.258;2022-10-16T10:52:02;21.00;18.40
1680;DHT22;838;51.794;12.258;2022-10-16T10:55:03;20.90;19.10
1680;DHT22;838;51.794;12.258;2022-10-16T10:57:36;21.00;18.10
1680;DHT22;838;51.794;12.258;2022-10-16T11:00:54;21.00;18.40
1680;DHT22;838;51.794;12.258;2022-10-16T11:04:18;20.90;18.70
1680;DHT22;838;51.794;12.258;2022-10-16T11:06:52;20.90;18.90
1680;DHT22;838;51.794;12.258;2022-10-16T11:09:28;20.90;18.60
1680;DHT22;838;51.794;12.258;2022-10-16T11:18:11;21.60;13.00
1680;DHT22;838;51.794;12.258;2022-10-16T11:20:40;21.90;12.30
1680;DHT22;838;51.794;12.258;2022-10-16T11:23:18;22.20;10.00
1680;DHT22;838;51.794;12.258;2022-10-16T11:25:49;22.40;8.30
1680;DHT22;838;51.794;12.258;2022-10-16T11:28:20;22.30;7.00
1680;DHT22;838;51.794;12.258;2022-10-16T11:31:08;22.00;8.30
1680;DHT22;838;51.794;12.258;2022-10-16T11:33:39;22.00;9.90
1680;DHT22;838;51.794;12.258;2022-10-16T11:36:19;22.00;10.40
1680;DHT22;838;51.794;12.258;2022-10-16T11:44:38;22.00;9.90
1680;DHT22;838;51.794;12.258;2022-10-16T11:47:31;22.00;9.70
1680;DHT22;838;51.794;12.258;2022-10-16T11:50:02;21.90;10.10
1680;DHT22;838;51.794;12.258;2022-10-16T11:53:03;22.00;10.00
1680;DHT22;838;51.794;12.258;2022-10-16T11:58:05;22.10;8.50
1680;DHT22;838;51.794;12.258;2022-10-16T12:03:25;22.20;8.70
1680;DHT22;838;51.794;12.258;2022-10-16T12:08:22;22.10;8.30
1680;DHT22;838;51.794;12.258;2022-10-16T12:10:50;22.10;8.10
1680;DHT22;838;51.794;12.258;2022-10-16T12:13:31;22.20;7.30
1680;DHT22;838;51.794;12.258;2022-10-16T12:16:24;22.30;7.60
1680;DHT22;838;51.794;12.258;2022-10-16T12:19:13;22.30;7.60
1680;DHT22;838;51.794;12.258;2022-10-16T12:21:44;22.30;7.10
1680;DHT22;838;51.794;12.258;2022-10-16T12:24:41;22.60;7.30
1680;DHT22;838;51.794;12.258;2022-10-16T12:27:39;22.60;4.90
1680;DHT22;838;51.794;12.258;2022-10-16T12:30:20;22.70;4.10
1680;DHT22;838;51.794;12.258;2022-10-16T12:32:54;22.60;4.40
1680;DHT22;838;51.794;12.258;2022-10-16T12:35:24;22.70;3.30
1680;DHT22;838;51.794;12.258;2022-10-16T12:37:51;22.70;3.70
1680;DHT22;838;51.794;12.258;2022-10-16T12:40:30;22.70;2.80
1680;DHT22;838;51.794;12.258;2022-10-16T12:43:10;22.70;3.40
1680;DHT22;838;51.794;12.258;2022-10-16T12:45:36;22.80;3.10
1680;DHT22;838;51.794;12.258;2022-10-16T12:48:18;22.90;1.00
1680;DHT22;838;51.794;12.258;2022-10-16T12:50:44;22.90;1.00
1680;DHT22;838;51.794;12.258;2022-10-16T12:53:24;22.90;1.50
1680;DHT22;838;51.794;12.258;2022-10-16T12:59:35;22.90;1.00
1680;DHT22;838;51.794;12.258;2022-10-16T13:01:46;22.80;1.00
1680;DHT22;838;51.794;12.258;2022-10-16T13:13:20;23.00;1.00
1680;DHT22;838;51.794;12.258;2022-10-16T13:24:19;23.30;1.00
1680;DHT22;838;51.794;12.258;2022-10-16T13:29:38;22.50;1.00
1680;DHT22;838;51.794;12.258;2022-10-16T13:32:11;22.40;2.10
1680;DHT22;838;51.794;12.258;2022-10-16T13:34:46;22.50;1.20
1680;DHT22;838;51.794;12.258;2022-10-16T13:37:20;22.50;1.60
1680;DHT22;838;51.794;12.258;2022-10-16T13:39:46;22.70;1.00
1680;DHT22;838;51.794;12.258;2022-10-16T13:44:53;23.40;1.00
1680;DHT22;838;51.794;12.258;2022-10-16T13:47:35;23.80;1.00
1680;DHT22;838;51.794;12.258;2022-10-16T13:50:02;23.90;1.00
1680;DHT22;838;51.794;12.258;2022-10-16T13:52:28;23.80;1.00
1680;DHT22;838;51.794;12.258;2022-10-16T13:54:53;23.60;1.00
1680;DHT22;838;51.794;12.258;2022-10-16T13:57:22;23.50;1.00
1680;DHT22;838;51.794;12.258;2022-10-16T13:59:48;23.40;1.00
1680;DHT22;838;51.794;12.258;2022-10-16T14:02:36;23.20;1.00
1680;DHT22;838;51.794;12.258;2022-10-16T14:05:36;23.20;1.00
1680;DHT22;838;51.794;12.258;2022-10-16T14:08:11;23.20;1.00
1680;DHT22;838;51.794;12.258;2022-10-16T14:10:38;23.10;1.00
1680;DHT22;838;51.794;12.258;2022-10-16T14:13:06;23.00;1.00
1680;DHT22;838;51.794;12.258;2022-10-16T14:15:37;23.30;1.00
1680;DHT22;838;51.794;12.258;2022-10-16T14:18:03;23.80;1.00
1680;DHT22;838;51.794;12.258;2022-10-16T14:20:32;23.90;1.00
1680;DHT22;838;51.794;12.258;2022-10-16T14:23:04;24.00;1.00
1680;DHT22;838;51.794;12.258;2022-10-16T14:25:34;24.30;1.00
1680;DHT22;838;51.794;12.258;2022-10-16T14:28:17;24.30;1.00
1680;DHT22;838;51.794;12.258;2022-10-16T14:31:16;24.10;1.00
1680;DHT22;838;51.794;12.258;2022-10-16T14:33:47;23.80;1.00
1680;DHT22;838;51.794;12.258;2022-10-16T14:36:16;23.80;1.00
1680;DHT22;838;51.794;12.258;2022-10-16T14:38:59;23.60;1.00
1680;DHT22;838;51.794;12.258;2022-10-16T14:41:31;23.50;1.00
1680;DHT22;838;51.794;12.258;2022-10-16T14:44:04;23.30;1.00
1680;DHT22;838;51.794;12.258;2022-10-16T14:46:35;23.20;1.00
1680;DHT22;838;51.794;12.258;2022-10-16T14:49:18;22.90;1.00
1680;DHT22;838;51.794;12.258;2022-10-16T14:51:47;22.90;1.00
1680;DHT22;838;51.794;12.258;2022-10-16T14:54:17;23.10;1.00
1680;DHT22;838;51.794;12.258;2022-10-16T14:56:54;23.20;1.00
1680;DHT22;838;51.794;12.258;2022-10-16T14:59:36;23.40;1.00
1680;DHT22;838;51.794;12.258;2022-10-16T15:04:48;23.60;1.00
1680;DHT22;838;51.794;12.258;2022-10-16T15:07:17;23.80;1.00
1680;DHT22;838;51.794;12.258;2022-10-16T15:09:43;23.70;1.00
1680;DHT22;838;51.794;12.258;2022-10-16T15:12:09;23.60;1.00
1680;DHT22;838;51.794;12.258;2022-10-16T15:14:35;23.60;1.00
1680;DHT22;838;51.794;12.258;2022-10-16T15:17:00;23.80;1.00
1680;DHT22;838;51.794;12.258;2022-10-16T15:19:28;23.80;1.00
1680;DHT22;838;51.794;12.258;2022-10-16T15:21:54;23.70;1.00
1680;DHT22;838;51.794;12.258;2022-10-16T15:24:20;23.60;1.00
1680;DHT22;838;51.794;12.258;2022-10-16T15:26:51;23.50;1.00
1680;DHT22;838;51.794;12.258;2022-10-16T15:29:17;23.30;1.00
1680;DHT22;838;51.794;12.258;2022-10-16T15:31:43;23.20;1.00
1680;DHT22;838;51.794;12.258;2022-10-16T15:34:10;23.10;1.00
1680;DHT22;838;51.794;12.258;2022-10-16T15:36:37;23.00;1.00
1680;DHT22;838;51.794;12.258;2022-10-16T15:39:21;22.90;1.00
1680;DHT22;838;51.794;12.258;2022-10-16T15:41:52;22.70;1.00
1680;DHT22;838;51.794;12.258;2022-10-16T15:44:21;22.60;1.00
1680;DHT22;838;51.794;12.258;2022-10-16T15:46:55;22.50;1.00
1680;DHT22;838;51.794;12.258;2022-10-16T15:49:23;22.50;1.00
1680;DHT22;838;51.794;12.258;2022-10-16T15:51:49;22.50;1.00
1680;DHT22;838;51.794;12.258;2022-10-16T15:56:41;22.70;1.00
1680;DHT22;838;51.794;12.258;2022-10-16T15:59:07;22.70;1.00
1680;DHT22;838;51.794;12.258;2022-10-16T16:01:34;22.70;1.00
1680;DHT22;838;51.794;12.258;2022-10-16T16:04:06;22.60;1.00
1680;DHT22;838;51.794;12.258;2022-10-16T16:06:32;22.40;1.00
1680;DHT22;838;51.794;12.258;2022-10-16T16:08:58;22.20;1.00
1680;DHT22;838;51.794;12.258;2022-10-16T16:11:25;22.00;1.00
1680;DHT22;838;51.794;12.258;2022-10-16T16:13:51;22.00;1.00
1680;DHT22;838;51.794;12.258;2022-10-16T16:16:17;22.10;1.00
1680;DHT22;838;51.794;12.258;2022-10-16T16:18:45;22.00;1.80
1680;DHT22;838;51.794;12.258;2022-10-16T16:21:15;21.80;4.40
1680;DHT22;838;51.794;12.258;2022-10-16T16:23:43;21.60;5.20
1680;DHT22;838;51.794;12.258;2022-10-16T16:26:20;21.50;4.40
1680;DHT22;838;51.794;12.258;2022-10-16T16:28:47;21.70;3.60
1680;DHT22;838;51.794;12.258;2022-10-16T16:31:15;21.70;3.10
1680;DHT22;838;51.794;12.258;2022-10-16T16:33:41;21.50;4.60
1680;DHT22;838;51.794;12.258;2022-10-16T16:36:06;21.20;7.30
1680;DHT22;838;51.794;12.258;2022-10-16T16:38:33;21.10;8.50
1680;DHT22;838;51.794;12.258;2022-10-16T16:40:59;21.00;10.60
1680;DHT22;838;51.794;12.258;2022-10-16T16:43:26;20.70;13.90
1680;DHT22;838;51.794;12.258;2022-10-16T16:45:52;20.50;14.90
1680;DHT22;838;51.794;12.258;2022-10-16T16:48:18;20.40;16.00
1680;DHT22;838;51.794;12.258;2022-10-16T16:50:44;20.30;16.50
1680;DHT22;838;51.794;12.258;2022-10-16T16:53:10;20.20;16.80
1680;DHT22;838;51.794;12.258;2022-10-16T16:55:35;20.20;17.40
1680;DHT22;838;51.794;12.258;2022-10-16T16:58:01;20.20;16.50
1680;DHT22;838;51.794;12.258;2022-10-16T17:00:29;20.20;17.60
1680;DHT22;838;51.794;12.258;2022-10-16T17:02:56;19.50;23.00
1680;DHT22;838;51.794;12.258;2022-10-16T17:05:24;19.30;23.90
1680;DHT22;838;51.794;12.258;2022-10-16T17:07:50;19.20;25.20
1680;DHT22;838;51.794;12.258;2022-10-16T17:10:19;19.30;24.00
1680;DHT22;838;51.794;12.258;2022-10-16T17:12:47;19.10;25.70
1680;DHT22;838;51.794;12.258;2022-10-16T17:15:13;19.10;25.70
1680;DHT22;838;51.794;12.258;2022-10-16T17:17:39;19.00;25.20
1680;DHT22;838;51.794;12.258;2022-10-16T17:20:14;19.00;25.30
1680;DHT22;838;51.794;12.258;2022-10-16T17:22:43;18.90;26.50
1680;DHT22;838;51.794;12.258;2022-10-16T17:25:09;19.00;26.10
1680;DHT22;838;51.794;12.258;2022-10-16T17:27:35;18.80;26.80
1680;DHT22;838;51.794;12.258;2022-10-16T17:30:01;18.80;27.10
1680;DHT22;838;51.794;12.258;2022-10-16T17:32:26;18.70;27.40
1680;DHT22;838;51.794;12.258;2022-10-16T17:34:52;18.60;28.70
1680;DHT22;838;51.794;12.258;2022-10-16T17:37:18;18.60;28.20
1680;DHT22;838;51.794;12.258;2022-10-16T17:39:44;18.60;28.10
1680;DHT22;838;51.794;12.258;2022-10-16T17:42:09;18.60;28.60
1680;DHT22;838;51.794;12.258;2022-10-16T17:44:35;18.50;29.00
1680;DHT22;838;51.794;12.258;2022-10-16T17:47:01;18.50;29.50
1680;DHT22;838;51.794;12.258;2022-10-16T17:49:26;18.50;29.20
1680;DHT22;838;51.794;12.258;2022-10-16T17:51:53;18.50;29.00
1680;DHT22;838;51.794;12.258;2022-10-16T17:54:19;18.40;29.20
1680;DHT22;838;51.794;12.258;2022-10-16T17:56:45;18.40;28.90
1680;DHT22;838;51.794;12.258;2022-10-16T17:59:12;18.20;29.80
1680;DHT22;838;51.794;12.258;2022-10-16T18:01:38;18.20;29.70
1680;DHT22;838;51.794;12.258;2022-10-16T18:04:08;18.10;31.20
1680;DHT22;838;51.794;12.258;2022-10-16T18:06:35;18.10;29.90